Wetterstation Vordersexau
Wetterdaten: Woche 17.01.11 - 23.01.11 (KW3)
Datum Zeit Temp. A. Feuchte A. Luftdruck Regen Wind Richtung Taupunkt Windchill Windben
17.01.2011 00:00 -0,4 C 88 % 1024,5 hPa 0,0 l/m 0,0 km/h O-NO -2,1 C -0,4 C 0,0 km/h
17.01.2011 01:00 -0,2 C 88 % 1024,3 hPa 0,0 l/m 0,0 km/h N-NO -1,9 C -0,2 C 0,0 km/h
17.01.2011 02:00 0,1 C 88 % 1024,4 hPa 0,0 l/m 0,0 km/h O-NO -1,6 C 0,1 C 0,0 km/h
17.01.2011 03:00 -0,5 C 88 % 1024,2 hPa 0,0 l/m 0,0 km/h O-NO -2,2 C -0,5 C 0,0 km/h
17.01.2011 04:00 -0,7 C 88 % 1024,2 hPa 0,0 l/m 0,0 km/h O-SO -2,4 C -0,7 C 0,0 km/h
17.01.2011 05:00 -0,8 C 88 % 1024,2 hPa 0,0 l/m 0,0 km/h O -2,5 C -0,8 C 0,0 km/h
17.01.2011 06:00 -0,7 C 88 % 1023,7 hPa 0,0 l/m 0,0 km/h NO -2,4 C -0,7 C 0,0 km/h
17.01.2011 07:00 -0,7 C 88 % 1023,6 hPa 0,0 l/m 0,0 km/h O-NO -2,4 C -0,7 C 0,0 km/h
17.01.2011 08:00 -1,1 C 88 % 1023,7 hPa 0,0 l/m 0,0 km/h O-NO -2,8 C -1,1 C 0,0 km/h
17.01.2011 09:00 4,4 C 85 % 1024,0 hPa 0,0 l/m 0,0 km/h O 2,1 C 4,4 C 0,0 km/h
17.01.2011 10:00 7,8 C 87 % 1023,6 hPa 0,0 l/m 0,0 km/h NO 5,8 C 7,8 C 0,0 km/h
17.01.2011 11:00 12,1 C 73 % 1023,8 hPa 0,0 l/m 0,0 km/h SW 7,4 C 12,1 C 0,0 km/h
17.01.2011 12:00 13,1 C 63 % 1023,4 hPa 0,0 l/m 27,9 km/h S-SW 6,2 C 5,4 C 15,5 km/h
17.01.2011 13:00 13,3 C 62 % 1023,0 hPa 0,0 l/m 26,6 km/h SW 6,2 C 6,0 C 14,8 km/h
17.01.2011 14:00 13,2 C 63 % 1023,4 hPa 0,0 l/m 13,6 km/h S-SW 6,3 C 9,5 C 7,6 km/h
17.01.2011 15:00 12,8 C 65 % 1023,7 hPa 0,0 l/m 7,8 km/h W 6,4 C 11,9 C 4,3 km/h
17.01.2011 16:00 10,1 C 71 % 1024,1 hPa 0,0 l/m 5,8 km/h NO 5,1 C 10,1 C 3,2 km/h
17.01.2011 17:00 7,3 C 77 % 1024,2 hPa 0,0 l/m 0,0 km/h NO 3,5 C 7,3 C 0,0 km/h
17.01.2011 18:00 5,6 C 82 % 1024,3 hPa 0,0 l/m 1,3 km/h O-NO 2,8 C 5,6 C 0,7 km/h
17.01.2011 19:00 4,2 C 86 % 1024,4 hPa 0,0 l/m 0,0 km/h O-NO 2,1 C 4,2 C 0,0 km/h
17.01.2011 20:00 5,4 C 86 % 1024,4 hPa 0,0 l/m 0,0 km/h NO 3,3 C 5,4 C 0,0 km/h
17.01.2011 21:00 5,4 C 86 % 1024,4 hPa 0,0 l/m 0,0 km/h SO 3,3 C 5,4 C 0,0 km/h
17.01.2011 22:00 5,6 C 86 % 1024,7 hPa 0,0 l/m 0,0 km/h O-SO 3,4 C 5,6 C 0,0 km/h
17.01.2011 23:00 5,8 C 88 % 1024,6 hPa 0,4 l/m 0,0 km/h SO 4,0 C 5,8 C 0,0 km/h
18.01.2011 00:00 5,6 C 88 % 1024,8 hPa 0,0 l/m 0,0 km/h O-SO 3,8 C 5,6 C 0,0 km/h
18.01.2011 01:00 5,2 C 88 % 1024,5 hPa 0,0 l/m 0,0 km/h O-SO 3,4 C 5,2 C 0,0 km/h
18.01.2011 02:00 4,4 C 88 % 1024,8 hPa 0,0 l/m 0,0 km/h O 2,6 C 4,4 C 0,0 km/h
18.01.2011 03:00 5,3 C 87 % 1024,5 hPa 0,0 l/m 0,0 km/h SO 3,3 C 5,3 C 0,0 km/h
18.01.2011 04:00 3,9 C 87 % 1024,5 hPa 0,0 l/m 0,0 km/h O-SO 1,9 C 3,9 C 0,0 km/h
18.01.2011 05:00 5,2 C 86 % 1024,2 hPa 0,0 l/m 0,0 km/h SO 3,1 C 5,2 C 0,0 km/h
18.01.2011 06:00 5,3 C 86 % 1024,1 hPa 0,0 l/m 0,0 km/h SO 3,2 C 5,3 C 0,0 km/h
18.01.2011 07:00 5,5 C 86 % 1024,2 hPa 0,0 l/m 0,0 km/h O-NO 3,3 C 5,5 C 0,0 km/h
18.01.2011 08:00 5,9 C 86 % 1024,1 hPa 0,0 l/m 0,0 km/h SO 3,7 C 5,9 C 0,0 km/h
18.01.2011 09:00 6,7 C 87 % 1024,1 hPa 0,0 l/m 0,0 km/h SO 4,7 C 6,7 C 0,0 km/h
18.01.2011 10:00 8,1 C 88 % 1023,7 hPa 0,0 l/m 0,0 km/h O-SO 6,2 C 8,1 C 0,0 km/h
18.01.2011 11:00 10,1 C 87 % 1023,8 hPa 0,0 l/m 0,0 km/h W-SW 8,0 C 10,1 C 0,0 km/h
18.01.2011 12:00 11,6 C 76 % 1023,4 hPa 0,0 l/m 23,3 km/h W 7,5 C 4,4 C 13,0 km/h
18.01.2011 13:00 11,9 C 74 % 1022,3 hPa 0,0 l/m 13,0 km/h S-SW 7,4 C 8,3 C 7,2 km/h
18.01.2011 14:00 11,5 C 74 % 1022,4 hPa 0,0 l/m 32,4 km/h W-SW 7,0 C 2,3 C 18,0 km/h
18.01.2011 15:00 10,2 C 78 % 1022,7 hPa 0,0 l/m 29,8 km/h W-SW 6,5 C 1,0 C 16,6 km/h
18.01.2011 16:00 9,2 C 80 % 1022,8 hPa 0,0 l/m 21,4 km/h SW 5,9 C 1,8 C 11,9 km/h
18.01.2011 17:00 8,6 C 80 % 1023,1 hPa 0,0 l/m 9,7 km/h W-SW 5,3 C 6,2 C 5,4 km/h
18.01.2011 18:00 8,2 C 80 % 1023,7 hPa 0,0 l/m 1,9 km/h W-NW 5,0 C 8,2 C 1,1 km/h
18.01.2011 19:00 7,4 C 84 % 1024,0 hPa 0,0 l/m 0,0 km/h S-SW 4,9 C 7,4 C 0,0 km/h
18.01.2011 20:00 7,5 C 84 % 1023,3 hPa 0,0 l/m 1,9 km/h W 5,0 C 7,5 C 1,1 km/h
18.01.2011 21:00 7,3 C 84 % 1023,9 hPa 0,0 l/m 0,0 km/h SW 4,8 C 7,3 C 0,0 km/h
18.01.2011 22:00 6,9 C 86 % 1024,0 hPa 0,0 l/m 18,8 km/h W-SW 4,7 C -0,3 C 10,4 km/h
18.01.2011 23:00 6,7 C 86 % 1024,1 hPa 0,0 l/m 0,0 km/h NW 4,5 C 6,7 C 0,0 km/h
19.01.2011 00:00 6,3 C 87 % 1024,4 hPa 0,0 l/m 0,0 km/h NO 4,3 C 6,3 C 0,0 km/h
19.01.2011 01:00 5,9 C 87 % 1024,3 hPa 0,0 l/m 0,0 km/h N-NW 3,9 C 5,9 C 0,0 km/h
19.01.2011 02:00 5,9 C 88 % 1024,8 hPa 0,4 l/m 8,4 km/h N 4,1 C 4,2 C 4,7 km/h
19.01.2011 03:00 5,3 C 88 % 1025,0 hPa 0,7 l/m 0,0 km/h NO 3,5 C 5,3 C 0,0 km/h
19.01.2011 04:00 4,8 C 88 % 1025,1 hPa 0,0 l/m 16,2 km/h N-NO 3,0 C -1,8 C 9,0 km/h
19.01.2011 05:00 4,3 C 87 % 1025,9 hPa 0,0 l/m 0,0 km/h O-NO 2,3 C 4,3 C 0,0 km/h
19.01.2011 06:00 3,9 C 87 % 1026,3 hPa 0,0 l/m 0,0 km/h N-NO 1,9 C 3,9 C 0,0 km/h
19.01.2011 07:00 3,9 C 87 % 1026,6 hPa 0,0 l/m 0,0 km/h NO 1,9 C 3,9 C 0,0 km/h
19.01.2011 08:00 3,9 C 87 % 1026,9 hPa 0,0 l/m 0,0 km/h N-NO 1,9 C 3,9 C 0,0 km/h
19.01.2011 09:00 3,8 C 85 % 1027,2 hPa 0,0 l/m 0,0 km/h N 1,5 C 3,8 C 0,0 km/h
19.01.2011 10:00 4,6 C 81 % 1027,7 hPa 0,0 l/m 0,0 km/h N-NO 1,6 C 4,6 C 0,0 km/h
19.01.2011 11:00 7,3 C 71 % 1027,6 hPa 0,0 l/m 3,2 km/h NO 2,4 C 7,3 C 1,8 km/h
19.01.2011 12:00 7,0 C 68 % 1027,4 hPa 0,0 l/m 3,2 km/h N-NW 1,5 C 7,0 C 1,8 km/h
19.01.2011 13:00 5,0 C 74 % 1027,2 hPa 0,0 l/m 0,0 km/h O-NO 0,8 C 5,0 C 0,0 km/h
19.01.2011 14:00 5,1 C 76 % 1026,8 hPa 0,0 l/m 0,0 km/h SO 1,2 C 5,1 C 0,0 km/h
19.01.2011 15:00 6,3 C 71 % 1026,7 hPa 0,0 l/m 2,6 km/h SO 1,4 C 6,3 C 1,4 km/h
19.01.2011 16:00 5,1 C 74 % 1026,9 hPa 0,0 l/m 17,5 km/h SO 0,9 C -2,0 C 9,7 km/h
19.01.2011 17:00 1,8 C 83 % 1026,9 hPa 0,0 l/m 0,0 km/h SO -0,8 C 1,8 C 0,0 km/h
19.01.2011 18:00 1,6 C 87 % 1027,1 hPa 0,0 l/m 0,0 km/h SO -0,3 C 1,6 C 0,0 km/h
19.01.2011 19:00 1,0 C 88 % 1026,9 hPa 0,0 l/m 0,0 km/h O-SO -0,8 C 1,0 C 0,0 km/h
19.01.2011 20:00 0,9 C 88 % 1026,8 hPa 0,0 l/m 0,0 km/h SO -0,9 C 0,9 C 0,0 km/h
19.01.2011 21:00 1,3 C 89 % 1026,7 hPa 0,0 l/m 0,0 km/h SO -0,3 C 1,3 C 0,0 km/h
19.01.2011 22:00 0,9 C 89 % 1026,3 hPa 0,0 l/m 0,0 km/h O-SO -0,7 C 0,9 C 0,0 km/h
19.01.2011 23:00 -0,1 C 88 % 1025,8 hPa 0,0 l/m 0,0 km/h O-SO -1,8 C -0,1 C 0,0 km/h
20.01.2011 00:00 -0,2 C 88 % 1025,8 hPa 0,0 l/m 0,0 km/h NO -1,9 C -0,2 C 0,0 km/h
20.01.2011 01:00 0,1 C 89 % 1025,5 hPa 0,0 l/m 0,0 km/h SO -1,5 C 0,1 C 0,0 km/h
20.01.2011 02:00 -0,1 C 88 % 1024,8 hPa 0,0 l/m 0,0 km/h W-SW -1,8 C -0,1 C 0,0 km/h
20.01.2011 03:00 0,3 C 88 % 1024,5 hPa 0,0 l/m 0,0 km/h N -1,4 C 0,3 C 0,0 km/h
20.01.2011 04:00 0,4 C 88 % 1024,1 hPa 0,0 l/m 0,0 km/h NO -1,3 C 0,4 C 0,0 km/h
20.01.2011 05:00 0,1 C 88 % 1024,1 hPa 0,0 l/m 0,0 km/h NO -1,6 C 0,1 C 0,0 km/h
20.01.2011 06:00 0,0 C 88 % 1023,8 hPa 0,0 l/m 0,0 km/h NW -1,7 C 0,0 C 0,0 km/h
20.01.2011 07:00 0,0 C 88 % 1023,8 hPa 0,0 l/m 0,0 km/h NW -1,7 C 0,0 C 0,0 km/h
20.01.2011 08:00 -0,1 C 88 % 1023,8 hPa 0,0 l/m 0,0 km/h NW -1,8 C -0,1 C 0,0 km/h
20.01.2011 09:00 0,4 C 88 % 1024,0 hPa 0,0 l/m 0,0 km/h NW -1,3 C 0,4 C 0,0 km/h
20.01.2011 10:00 0,7 C 88 % 1024,2 hPa 0,0 l/m 0,0 km/h S -1,1 C 0,7 C 0,0 km/h
20.01.2011 11:00 4,1 C 89 % 1024,2 hPa 0,0 l/m 1,3 km/h S 2,5 C 4,1 C 0,7 km/h
20.01.2011 12:00 5,4 C 84 % 1024,2 hPa 0,0 l/m 0,0 km/h N-NO 2,9 C 5,4 C 0,0 km/h
20.01.2011 13:00 2,1 C 83 % 1024,0 hPa 0,7 l/m 1,9 km/h N-NO -0,5 C 2,1 C 1,1 km/h
20.01.2011 14:00 4,9 C 78 % 1024,0 hPa 1,1 l/m 0,6 km/h N-NO 1,4 C 4,9 C 0,4 km/h
20.01.2011 15:00 3,5 C 81 % 1024,0 hPa 0,4 l/m 0,0 km/h NO 0,6 C 3,5 C 0,0 km/h
20.01.2011 16:00 1,4 C 85 % 1024,1 hPa 0,0 l/m 0,0 km/h O-NO -0,8 C 1,4 C 0,0 km/h
20.01.2011 17:00 -0,1 C 87 % 1024,4 hPa 0,0 l/m 0,0 km/h O-SO -2,0 C -0,1 C 0,0 km/h
20.01.2011 18:00 -0,6 C 89 % 1024,7 hPa 0,0 l/m 0,0 km/h NO -2,2 C -0,6 C 0,0 km/h
20.01.2011 19:00 0,1 C 89 % 1025,0 hPa 0,0 l/m 0,0 km/h N-NO -1,5 C 0,1 C 0,0 km/h
20.01.2011 20:00 0,1 C 89 % 1025,3 hPa 0,0 l/m 0,0 km/h NO -1,5 C 0,1 C 0,0 km/h
20.01.2011 21:00 -0,7 C 89 % 1025,6 hPa 0,0 l/m 0,0 km/h NO -2,3 C -0,7 C 0,0 km/h
20.01.2011 22:00 -1,8 C 89 % 1026,0 hPa 0,0 l/m 0,0 km/h NO -3,4 C -1,8 C 0,0 km/h
20.01.2011 23:00 -1,2 C 89 % 1026,5 hPa 0,0 l/m 0,0 km/h NO -2,8 C -1,2 C 0,0 km/h
21.01.2011 00:00 -1,4 C 89 % 1026,2 hPa 0,0 l/m 0,0 km/h N-NO -3,0 C -1,4 C 0,0 km/h
21.01.2011 01:00 -1,1 C 89 % 1026,2 hPa 0,0 l/m 0,0 km/h SO -2,7 C -1,1 C 0,0 km/h
21.01.2011 02:00 -0,8 C 88 % 1026,7 hPa 0,0 l/m 0,0 km/h SO -2,5 C -0,8 C 0,0 km/h
21.01.2011 03:00 -0,5 C 88 % 1026,7 hPa 0,0 l/m 0,0 km/h N -2,2 C -0,5 C 0,0 km/h
21.01.2011 04:00 -0,4 C 89 % 1026,8 hPa 0,0 l/m 11,7 km/h O-NO -2,0 C -5,2 C 6,5 km/h
21.01.2011 05:00 -2,0 C 89 % 1027,3 hPa 0,0 l/m 0,0 km/h O-NO -3,6 C -2,0 C 0,0 km/h
21.01.2011 06:00 -2,4 C 89 % 1027,3 hPa 0,0 l/m 0,0 km/h N-NO -4,0 C -2,4 C 0,0 km/h
21.01.2011 07:00 -2,2 C 87 % 1027,8 hPa 0,0 l/m 0,0 km/h W-NW -4,1 C -2,2 C 0,0 km/h
21.01.2011 08:00 -1,1 C 85 % 1028,1 hPa 0,0 l/m 5,2 km/h N-NO -3,3 C -1,1 C 2,9 km/h
21.01.2011 09:00 -0,2 C 83 % 1028,4 hPa 0,0 l/m 0,0 km/h NO -2,7 C -0,2 C 0,0 km/h
21.01.2011 10:00 1,1 C 79 % 1028,7 hPa 0,0 l/m 0,0 km/h N-NO -2,1 C 1,1 C 0,0 km/h
21.01.2011 11:00 1,6 C 74 % 1028,9 hPa 0,0 l/m 0,0 km/h N-NO -2,5 C 1,6 C 0,0 km/h
21.01.2011 12:00 1,3 C 74 % 1028,7 hPa 0,0 l/m 0,0 km/h N -2,8 C 1,3 C 0,0 km/h
21.01.2011 13:00 1,3 C 73 % 1028,4 hPa 0,4 l/m 0,0 km/h NO -3,0 C 1,3 C 0,0 km/h
21.01.2011 14:00 1,7 C 72 % 1028,0 hPa 0,0 l/m 0,0 km/h NO -2,8 C 1,7 C 0,0 km/h
21.01.2011 15:00 1,0 C 73 % 1028,0 hPa 0,0 l/m 0,0 km/h N -3,3 C 1,0 C 0,0 km/h
21.01.2011 16:00 0,4 C 73 % 1028,1 hPa 0,0 l/m 3,9 km/h N-NO -3,9 C 0,4 C 2,2 km/h
21.01.2011 17:00 0,1 C 74 % 1028,2 hPa 0,0 l/m 0,0 km/h N-NO -4,0 C 0,1 C 0,0 km/h
21.01.2011 18:00 -0,1 C 72 % 1028,7 hPa 0,0 l/m 1,9 km/h N-NO -4,5 C -0,1 C 1,1 km/h
21.01.2011 19:00 -0,4 C 73 % 1028,9 hPa 0,0 l/m 5,8 km/h NO -4,6 C -0,4 C 3,2 km/h
21.01.2011 20:00 -0,5 C 73 % 1029,0 hPa 0,0 l/m 0,0 km/h N-NO -4,7 C -0,5 C 0,0 km/h
21.01.2011 21:00 -0,7 C 73 % 1029,1 hPa 0,0 l/m 0,0 km/h N-NO -4,9 C -0,7 C 0,0 km/h
21.01.2011 22:00 -0,8 C 74 % 1028,8 hPa 0,0 l/m 0,0 km/h N-NO -4,8 C -0,8 C 0,0 km/h
21.01.2011 23:00 -1,9 C 75 % 1028,9 hPa 0,0 l/m 0,0 km/h NO -5,7 C -1,9 C 0,0 km/h
22.01.2011 00:00 -3,1 C 78 % 1028,6 hPa 0,0 l/m 0,0 km/h N-NO -6,4 C -3,1 C 0,0 km/h
22.01.2011 01:00 -2,9 C 77 % 1028,4 hPa 0,0 l/m 0,0 km/h NO -6,4 C -2,9 C 0,0 km/h
22.01.2011 02:00 -3,9 C 78 % 1028,1 hPa 0,0 l/m 0,0 km/h O-SO -7,2 C -3,9 C 0,0 km/h
22.01.2011 03:00 -3,9 C 80 % 1027,8 hPa 0,0 l/m 0,0 km/h O-NO -6,8 C -3,9 C 0,0 km/h
22.01.2011 04:00 -2,7 C 78 % 1027,5 hPa 0,0 l/m 0,0 km/h O-NO -6,0 C -2,7 C 0,0 km/h
22.01.2011 05:00 -2,1 C 76 % 1027,2 hPa 0,0 l/m 0,0 km/h NO -5,7 C -2,1 C 0,0 km/h
22.01.2011 06:00 -1,8 C 77 % 1027,1 hPa 0,0 l/m 0,0 km/h N -5,3 C -1,8 C 0,0 km/h
22.01.2011 07:00 -1,7 C 74 % 1027,3 hPa 0,0 l/m 0,0 km/h O-SO -5,7 C -1,7 C 0,0 km/h
22.01.2011 08:00 -1,7 C 72 % 1027,5 hPa 0,0 l/m 0,0 km/h O -6,1 C -1,7 C 0,0 km/h
22.01.2011 09:00 -1,4 C 70 % 1027,5 hPa 0,0 l/m 0,0 km/h O-NO -6,1 C -1,4 C 0,0 km/h
22.01.2011 10:00 -0,5 C 69 % 1027,2 hPa 0,0 l/m 0,0 km/h O-NO -5,5 C -0,5 C 0,0 km/h
22.01.2011 11:00 0,8 C 67 % 1026,8 hPa 0,0 l/m 0,0 km/h O -4,6 C 0,8 C 0,0 km/h
22.01.2011 12:00 0,9 C 60 % 1026,4 hPa 0,0 l/m 0,0 km/h SO -6,0 C 0,9 C 0,0 km/h
22.01.2011 13:00 0,9 C 60 % 1025,6 hPa 0,0 l/m 0,0 km/h NO -6,0 C 0,9 C 0,0 km/h
22.01.2011 14:00 3,4 C 54 % 1025,2 hPa 0,0 l/m 8,4 km/h NO -5,0 C 1,6 C 4,7 km/h
22.01.2011 15:00 1,2 C 59 % 1025,3 hPa 0,0 l/m 0,0 km/h N -5,9 C 1,2 C 0,0 km/h
22.01.2011 16:00 -0,2 C 64 % 1025,0 hPa 0,0 l/m 5,8 km/h SO -6,2 C -0,2 C 3,2 km/h
22.01.2011 17:00 -1,9 C 68 % 1025,0 hPa 0,0 l/m 3,9 km/h NO -7,0 C -1,9 C 2,2 km/h
22.01.2011 18:00 -2,5 C 68 % 1025,2 hPa 0,0 l/m 0,0 km/h NO -7,6 C -2,5 C 0,0 km/h
22.01.2011 19:00 -2,7 C 69 % 1025,4 hPa 0,0 l/m 0,0 km/h O-NO -7,6 C -2,7 C 0,0 km/h
22.01.2011 20:00 -2,8 C 69 % 1024,9 hPa 0,0 l/m 0,0 km/h NO -7,7 C -2,8 C 0,0 km/h
22.01.2011 21:00 -4,2 C 72 % 1025,1 hPa 0,0 l/m 0,0 km/h NO -8,5 C -4,2 C 0,0 km/h
22.01.2011 22:00 -6,1 C 77 % 1024,8 hPa 0,0 l/m 0,0 km/h O-NO -9,5 C -6,1 C 0,0 km/h
22.01.2011 23:00 -6,9 C 82 % 1024,8 hPa 0,0 l/m 0,0 km/h O-NO -9,4 C -6,9 C 0,0 km/h
23.01.2011 00:00 -7,6 C 84 % 1024,8 hPa 0,0 l/m 0,0 km/h O-NO -9,8 C -7,6 C 0,0 km/h
23.01.2011 01:00 -7,9 C 85 % 1024,7 hPa 0,0 l/m 0,0 km/h NO -10,0 C -7,9 C 0,0 km/h
23.01.2011 02:00 -7,8 C 86 % 1024,6 hPa 0,0 l/m 0,0 km/h O-SO -9,7 C -7,8 C 0,0 km/h
23.01.2011 03:00 -8,1 C 86 % 1024,6 hPa 0,0 l/m 0,0 km/h O -10,0 C -8,1 C 0,0 km/h
23.01.2011 04:00 -8,1 C 86 % 1024,5 hPa 0,0 l/m 0,0 km/h O -10,0 C -8,1 C 0,0 km/h
23.01.2011 05:00 -8,3 C 86 % 1024,4 hPa 0,0 l/m 0,0 km/h NO -10,2 C -8,3 C 0,0 km/h
23.01.2011 06:00 -8,2 C 87 % 1024,1 hPa 0,0 l/m 0,0 km/h NO -10,0 C -8,2 C 0,0 km/h
23.01.2011 07:00 -8,6 C 86 % 1024,4 hPa 0,0 l/m 0,0 km/h O-NO -10,5 C -8,6 C 0,0 km/h
23.01.2011 08:00 -8,8 C 87 % 1024,4 hPa 0,0 l/m 0,0 km/h O-NO -10,6 C -8,8 C 0,0 km/h
23.01.2011 09:00 -2,9 C 88 % 1024,6 hPa 0,0 l/m 0,0 km/h S-SO -4,6 C -2,9 C 0,0 km/h
23.01.2011 10:00 1,0 C 78 % 1024,6 hPa 0,0 l/m 0,0 km/h W-NW -2,4 C 1,0 C 0,0 km/h
23.01.2011 11:00 3,6 C 62 % 1024,5 hPa 0,0 l/m 0,0 km/h SW -3,0 C 3,6 C 0,0 km/h
23.01.2011 12:00 3,8 C 58 % 1024,0 hPa 0,0 l/m 0,0 km/h SW -3,7 C 3,8 C 0,0 km/h
23.01.2011 13:00 2,4 C 61 % 1023,2 hPa 0,0 l/m 1,3 km/h W-SW -4,3 C 2,4 C 0,7 km/h
23.01.2011 14:00 4,3 C 59 % 1023,0 hPa 0,0 l/m 0,0 km/h O-NO -3,0 C 4,3 C 0,0 km/h
23.01.2011 15:00 7,0 C 52 % 1022,7 hPa 0,0 l/m 0,0 km/h O-NO -2,2 C 7,0 C 0,0 km/h
23.01.2011 16:00 6,7 C 52 % 1022,7 hPa 0,0 l/m 0,0 km/h N -2,4 C 6,7 C 0,0 km/h
23.01.2011 17:00 -0,2 C 67 % 1023,0 hPa 0,0 l/m 0,0 km/h N -5,6 C -0,2 C 0,0 km/h
23.01.2011 18:00 -2,2 C 75 % 1023,2 hPa 0,0 l/m 0,0 km/h W-SW -6,0 C -2,2 C 0,0 km/h
23.01.2011 19:00 -3,5 C 81 % 1023,7 hPa 0,0 l/m 0,0 km/h S-SO -6,3 C -3,5 C 0,0 km/h
23.01.2011 20:00 -4,4 C 85 % 1023,7 hPa 0,0 l/m 0,0 km/h O-SO -6,5 C -4,4 C 0,0 km/h
23.01.2011 21:00 -4,6 C 86 % 1023,9 hPa 0,0 l/m 0,0 km/h O -6,6 C -4,6 C 0,0 km/h
23.01.2011 22:00 -4,9 C 87 % 1023,9 hPa 0,0 l/m 0,0 km/h O -6,7 C -4,9 C 0,0 km/h
23.01.2011 23:00 -4,5 C 88 % 1023,9 hPa 0,0 l/m 0,0 km/h SO -6,2 C -4,5 C 0,0 km/h
Min-Datum _ 23.01.11 23.01.11 18.01.11 - 17.01.11 - 23.01.11 23.01.11 17.01.11
_ Min-Zeit 08:30 15:30 13:30 - 00:30 - 08:30 08:30 00:30
Minimum _ -8,8 C 52 % 1022,3 hPa - 0,0 km/h - -10,6 C -8,8 C 0,0 km/h
Max-Datum _ 17.01.11 19.01.11 21.01.11 20.01.11 18.01.11 - 18.01.11 17.01.11 18.01.11
_ Max-Zeit 13:30 21:30 21:30 14:30 14:30 - 11:30 11:30 14:30
Maximum _ 13,3 C 89 % 1029,1 hPa 1,1 l/m 32,4 km/h
W-SW
- 8,0 C 12,1 C 18,0 km/h
W-SW
Durchschnitt _ 1,7 C 80 % 1025,3 hPa #3,9 l/m 2,0 km/h NO -1,4 C 1,2 C 1,1 km/h
www.sexauwetter.de